createdAt,value
2022-11-30T00:00:57.884Z,100647.91
2022-11-30T00:03:26.366Z,100645.69
2022-11-30T00:05:53.975Z,100644.81
2022-11-30T00:08:21.447Z,100646.88
2022-11-30T00:10:48.885Z,100633.38
2022-11-30T00:13:16.278Z,100640.09
2022-11-30T00:15:43.748Z,100648.41
2022-11-30T00:18:11.187Z,100652.06
2022-11-30T00:20:38.611Z,100655.38
2022-11-30T00:23:06.040Z,100655.53
2022-11-30T00:25:33.625Z,100654.50
2022-11-30T00:28:01.753Z,100655.53
2022-11-30T00:30:30.645Z,100657.63
2022-11-30T00:32:58.292Z,100657.63
2022-11-30T00:35:25.965Z,100657.25
2022-11-30T00:37:53.425Z,100664.88
2022-11-30T00:40:20.881Z,100666.63
2022-11-30T00:42:48.343Z,100660.41
2022-11-30T00:45:15.840Z,100655.53
2022-11-30T00:47:43.309Z,100661.78
2022-11-30T00:50:11.326Z,100666.28
2022-11-30T00:52:38.769Z,100661.63
2022-11-30T00:55:06.779Z,100670.78
2022-11-30T00:57:34.332Z,100684.09
2022-11-30T01:00:01.880Z,100682.19
2022-11-30T01:02:30.511Z,100689.63
2022-11-30T01:04:58.041Z,100696.75
2022-11-30T01:07:25.560Z,100688.44
2022-11-30T01:09:52.993Z,100691.06
2022-11-30T01:12:20.595Z,100689.63
2022-11-30T01:14:48.210Z,100682.59
2022-11-30T01:17:15.971Z,100686.03
2022-11-30T01:19:43.416Z,100672.53
2022-11-30T01:22:11.161Z,100669.97
2022-11-30T01:24:38.668Z,100658.69
2022-11-30T01:27:06.096Z,100663.56
2022-11-30T01:29:33.607Z,100669.56
2022-11-30T01:32:01.105Z,100661.78
2022-11-30T01:34:28.641Z,100661.94
2022-11-30T01:36:56.149Z,100660.56
2022-11-30T01:39:23.538Z,100668.00
2022-11-30T01:41:51.004Z,100662.47
2022-11-30T01:44:20.227Z,100667.31
2022-11-30T01:47:05.500Z,100665.22
2022-11-30T01:49:44.481Z,100662.16
2022-11-30T01:52:17.240Z,100653.13
2022-11-30T01:55:03.683Z,100655.56
2022-11-30T01:57:33.864Z,100653.13
2022-11-30T02:00:04.671Z,100652.94
2022-11-30T02:02:45.624Z,100654.19
2022-11-30T02:05:16.757Z,100652.63
2022-11-30T02:07:44.905Z,100647.97
2022-11-30T02:10:17.749Z,100646.78
2022-11-30T02:13:01.209Z,100653.53
2022-11-30T02:15:34.163Z,100655.25
2022-11-30T02:18:11.589Z,100650.44
2022-11-30T02:20:55.890Z,100661.53
2022-11-30T02:23:29.292Z,100662.53
2022-11-30T02:26:29.661Z,100662.03
2022-11-30T02:29:35.024Z,100661.03
2022-11-30T02:32:10.022Z,100661.50
2022-11-30T02:34:38.553Z,100657.00
2022-11-30T02:37:08.068Z,100657.72
2022-11-30T02:39:35.738Z,100655.97
2022-11-30T02:42:03.379Z,100661.50
2022-11-30T02:44:31.421Z,100662.94
2022-11-30T02:47:13.374Z,100658.25
2022-11-30T02:49:46.592Z,100652.88
2022-11-30T02:52:16.300Z,100660.84
2022-11-30T02:54:44.030Z,100660.31
2022-11-30T02:57:12.517Z,100652.88
2022-11-30T02:59:40.213Z,100668.13
2022-11-30T03:02:07.735Z,100669.38
2022-11-30T03:04:35.211Z,100671.25
2022-11-30T03:07:02.737Z,100668.13
2022-11-30T03:09:30.181Z,100669.53
2022-11-30T03:11:57.615Z,100674.72
2022-11-30T03:14:25.218Z,100664.16
2022-11-30T03:16:52.670Z,100661.53
2022-11-30T03:19:20.573Z,100660.84
2022-11-30T03:21:47.970Z,100649.59
2022-11-30T03:24:15.423Z,100661.91
2022-11-30T03:26:42.853Z,100662.06
2022-11-30T03:29:10.295Z,100652.72
2022-11-30T03:31:37.748Z,100646.66
2022-11-30T03:34:05.366Z,100651.69
2022-11-30T03:36:32.864Z,100650.13
2022-11-30T03:39:00.557Z,100647.34
2022-11-30T03:41:28.048Z,100646.66
2022-11-30T03:43:55.532Z,100645.63
2022-11-30T03:46:23.702Z,100649.97
2022-11-30T03:48:51.160Z,100658.09
2022-11-30T03:51:18.917Z,100658.09
2022-11-30T03:53:46.411Z,100657.25
2022-11-30T03:56:14.440Z,100666.41
2022-11-30T03:58:42.713Z,100660.53
2022-11-30T04:01:15.907Z,100658.78
2022-11-30T04:03:43.830Z,100658.09
2022-11-30T04:06:13.125Z,100662.44
2022-11-30T04:08:41.315Z,100659.31
2022-11-30T04:11:08.956Z,100668.34
2022-11-30T04:13:38.128Z,100661.22
2022-11-30T04:16:06.267Z,100667.81
2022-11-30T04:18:36.033Z,100665.56
2022-11-30T04:21:04.051Z,100657.25
2022-11-30T04:23:34.173Z,100661.41
2022-11-30T04:26:06.850Z,100663.13
2022-11-30T04:28:35.265Z,100658.47
2022-11-30T04:31:03.522Z,100661.25
2022-11-30T04:33:31.051Z,100645.44
2022-11-30T04:36:00.748Z,100645.28
2022-11-30T04:38:29.699Z,100648.94
2022-11-30T04:40:57.309Z,100648.06
2022-11-30T04:43:26.390Z,100655.00
2022-11-30T04:45:53.899Z,100649.63
2022-11-30T04:48:21.345Z,100655.00
2022-11-30T04:50:48.998Z,100659.16
2022-11-30T04:53:16.492Z,100666.09
2022-11-30T04:55:43.939Z,100672.50
2022-11-30T04:58:11.373Z,100672.50
2022-11-30T05:00:38.825Z,100677.69
2022-11-30T05:03:06.658Z,100678.72
2022-11-30T05:05:34.209Z,100676.69
2022-11-30T05:08:01.969Z,100668.53
2022-11-30T05:10:30.280Z,100678.56
2022-11-30T05:12:57.877Z,100673.72
2022-11-30T05:15:26.005Z,100674.22
2022-11-30T05:17:53.508Z,100676.16
2022-11-30T05:20:20.913Z,100669.72
2022-11-30T05:22:49.107Z,100677.56
2022-11-30T05:25:16.540Z,100671.47
2022-11-30T05:27:44.031Z,100675.47
2022-11-30T05:30:12.158Z,100682.56
2022-11-30T05:32:39.622Z,100683.13
2022-11-30T05:35:07.469Z,100686.78
2022-11-30T05:37:34.925Z,100684.69
2022-11-30T05:40:02.407Z,100680.88
2022-11-30T05:42:29.952Z,100678.97
2022-11-30T05:44:57.361Z,100674.09
2022-11-30T05:47:24.807Z,100668.72
2022-11-30T05:49:52.550Z,100670.44
2022-11-30T05:52:20.172Z,100672.38
2022-11-30T05:54:47.798Z,100680.34
2022-11-30T05:57:15.535Z,100674.63
2022-11-30T06:00:01.828Z,100674.94
2022-11-30T06:02:39.350Z,100678.44
2022-11-30T06:05:07.576Z,100672.38
2022-11-30T06:07:35.208Z,100677.03
2022-11-30T06:10:02.977Z,100682.75
2022-11-30T06:12:30.408Z,100681.91
2022-11-30T06:14:57.902Z,100694.03
2022-11-30T06:17:25.301Z,100699.25
2022-11-30T06:19:52.780Z,100700.44
2022-11-30T06:22:20.354Z,100706.19
2022-11-30T06:24:48.028Z,100706.72
2022-11-30T06:27:15.573Z,100714.16
2022-11-30T06:29:43.142Z,100707.25
2022-11-30T06:32:10.640Z,100719.19
2022-11-30T06:34:38.126Z,100726.31
2022-11-30T06:37:05.584Z,100728.19
2022-11-30T06:40:04.171Z,100709.13
2022-11-30T06:42:20.292Z,100715.72
2022-11-30T06:44:48.824Z,100714.69
2022-11-30T06:47:16.441Z,100722.31
2022-11-30T06:49:43.885Z,100719.56
2022-11-30T06:52:11.357Z,100723.91
2022-11-30T06:54:38.790Z,100718.34
2022-11-30T06:57:06.209Z,100721.28
2022-11-30T06:59:33.621Z,100714.69
2022-11-30T07:02:07.491Z,100713.47
2022-11-30T07:04:35.598Z,100724.75
2022-11-30T07:07:03.115Z,100725.09
2022-11-30T07:09:32.264Z,100731.69
2022-11-30T07:12:00.939Z,100737.25
2022-11-30T07:14:28.708Z,100734.47
2022-11-30T07:16:56.357Z,100740.56
2022-11-30T07:19:24.011Z,100738.78
2022-11-30T07:21:51.464Z,100732.38
2022-11-30T07:24:37.519Z,100712.94
2022-11-30T07:27:04.973Z,100708.63
2022-11-30T07:29:32.414Z,100716.41
2022-11-30T07:31:59.908Z,100713.81
2022-11-30T07:34:27.553Z,100717.63
2022-11-30T07:36:54.983Z,100716.78
2022-11-30T07:39:23.582Z,100721.28
2022-11-30T07:41:51.023Z,100723.16
2022-11-30T07:44:18.983Z,100718.66
2022-11-30T07:46:46.448Z,100715.03
2022-11-30T07:49:13.930Z,100714.69
2022-11-30T07:51:41.499Z,100714.31
2022-11-30T07:54:09.176Z,100720.41
2022-11-30T07:56:36.641Z,100723.00
2022-11-30T07:59:04.230Z,100724.91
2022-11-30T08:01:33.232Z,100730.47
2022-11-30T08:04:01.021Z,100724.38
2022-11-30T08:06:30.623Z,100728.41
2022-11-30T08:09:01.300Z,100732.53
2022-11-30T08:11:31.088Z,100728.91
2022-11-30T08:13:58.835Z,100736.53
2022-11-30T08:16:29.540Z,100736.22
2022-11-30T08:18:58.218Z,100738.09
2022-11-30T08:21:25.968Z,100733.44
2022-11-30T08:23:58.311Z,100738.25
2022-11-30T08:26:31.456Z,100741.03
2022-11-30T08:29:00.582Z,100741.91
2022-11-30T08:31:33.443Z,100749.38
2022-11-30T08:34:12.860Z,100744.69
2022-11-30T08:36:41.204Z,100741.41
2022-11-30T08:39:11.739Z,100736.72
2022-11-30T08:41:39.416Z,100726.84
2022-11-30T08:44:07.234Z,100727.34
2022-11-30T08:46:52.113Z,100732.53
2022-11-30T08:49:23.017Z,100731.34
2022-11-30T08:54:45.900Z,100744.53
2022-11-30T08:57:19.933Z,100753.91
2022-11-30T08:59:48.308Z,100764.28
2022-11-30T09:02:18.543Z,100766.22
2022-11-30T09:04:49.216Z,100749.88
2022-11-30T09:07:17.851Z,100741.22
2022-11-30T09:09:45.708Z,100743.81
2022-11-30T09:12:13.114Z,100732.03
2022-11-30T09:14:40.607Z,100735.47
2022-11-30T09:17:08.278Z,100738.97
2022-11-30T09:19:35.949Z,100738.09
2022-11-30T09:22:03.374Z,100734.28
2022-11-30T09:24:30.945Z,100737.94
2022-11-30T09:26:58.464Z,100734.47
2022-11-30T09:29:25.959Z,100732.22
2022-11-30T09:31:53.448Z,100740.03
2022-11-30T09:34:21.029Z,100731.19
2022-11-30T09:36:48.522Z,100734.81
2022-11-30T09:39:16.407Z,100740.03
2022-11-30T09:42:27.096Z,100737.25
2022-11-30T09:45:07.626Z,100734.63
2022-11-30T09:47:53.768Z,100721.59
2022-11-30T09:50:24.775Z,100726.84
2022-11-30T09:52:58.446Z,100732.22
2022-11-30T09:55:35.825Z,100726.47
2022-11-30T09:58:05.210Z,100730.47
2022-11-30T10:00:34.888Z,100713.63
2022-11-30T10:03:06.079Z,100719.72
2022-11-30T10:05:47.899Z,100708.63
2022-11-30T10:08:17.745Z,100706.34
2022-11-30T10:10:51.547Z,100707.25
2022-11-30T10:13:39.317Z,100699.41
2022-11-30T10:16:16.043Z,100699.75
2022-11-30T10:18:58.793Z,100694.03
2022-11-30T10:21:38.041Z,100689.03
2022-11-30T10:24:52.892Z,100693.53
2022-11-30T10:27:38.767Z,100692.47
2022-11-30T10:30:15.687Z,100688.31
2022-11-30T10:32:46.737Z,100696.63
2022-11-30T10:35:29.817Z,100696.31
2022-11-30T10:38:00.179Z,100697.00
2022-11-30T10:40:44.193Z,100701.31
2022-11-30T10:43:32.865Z,100706.88
2022-11-30T10:46:00.654Z,100714.53
2022-11-30T10:48:31.248Z,100702.38
2022-11-30T10:51:01.106Z,100694.38
2022-11-30T10:53:28.605Z,100692.31
2022-11-30T10:56:01.579Z,100694.72
2022-11-30T10:59:00.029Z,100688.66
2022-11-30T11:01:47.764Z,100686.75
2022-11-30T11:04:23.832Z,100677.19
2022-11-30T11:06:55.593Z,100664.03
2022-11-30T11:09:35.408Z,100669.75
2022-11-30T11:12:24.645Z,100665.25
2022-11-30T11:15:20.458Z,100665.78
2022-11-30T11:17:48.515Z,100661.06
2022-11-30T11:20:29.801Z,100661.44
2022-11-30T11:22:57.619Z,100666.28
2022-11-30T11:25:31.449Z,100663.53
2022-11-30T11:28:18.874Z,100660.06
2022-11-30T11:30:46.279Z,100658.28
2022-11-30T11:33:13.576Z,100672.16
2022-11-30T11:35:46.208Z,100665.41
2022-11-30T11:38:27.593Z,100663.31
2022-11-30T11:41:37.480Z,100666.97
2022-11-30T11:44:08.337Z,100665.41
2022-11-30T11:46:38.596Z,100663.53
2022-11-30T11:49:18.432Z,100662.47
2022-11-30T11:51:46.615Z,100671.31
2022-11-30T11:54:34.449Z,100671.50
2022-11-30T11:57:02.373Z,100672.19
2022-11-30T12:00:16.107Z,100672.53
2022-11-30T12:03:21.830Z,100674.63
2022-11-30T12:05:56.070Z,100671.50
2022-11-30T12:08:52.587Z,100673.06
2022-11-30T12:11:23.076Z,100670.97
2022-11-30T12:13:50.766Z,100668.88
2022-11-30T12:16:33.332Z,100674.09
2022-11-30T12:19:06.626Z,100667.50
2022-11-30T12:21:52.320Z,100651.91
2022-11-30T12:24:33.664Z,100655.53
2022-11-30T12:27:19.754Z,100667.88
2022-11-30T12:29:47.499Z,100664.22
2022-11-30T12:32:24.255Z,100667.66
2022-11-30T12:35:37.369Z,100668.38
2022-11-30T12:38:30.647Z,100664.03
2022-11-30T12:41:30.601Z,100665.94
2022-11-30T12:44:12.929Z,100669.06
2022-11-30T12:46:49.472Z,100666.97
2022-11-30T12:49:32.311Z,100674.78
2022-11-30T12:52:18.434Z,100672.38
2022-11-30T12:55:12.124Z,100673.22
2022-11-30T12:57:49.942Z,100670.66
2022-11-30T13:00:21.899Z,100670.81
2022-11-30T13:02:58.424Z,100673.75
2022-11-30T13:05:53.322Z,100675.47
2022-11-30T13:08:30.222Z,100667.16
2022-11-30T13:11:01.774Z,100676.00
2022-11-30T13:13:31.590Z,100668.19
2022-11-30T13:16:00.900Z,100671.84
2022-11-30T13:18:28.730Z,100671.50
2022-11-30T13:21:06.434Z,100656.25
2022-11-30T13:23:44.889Z,100664.38
2022-11-30T13:26:38.490Z,100672.53
2022-11-30T13:29:40.310Z,100662.13
2022-11-30T13:32:55.393Z,100667.00
2022-11-30T13:35:31.009Z,100669.25
2022-11-30T13:38:35.808Z,100672.91
2022-11-30T13:41:04.624Z,100673.59
2022-11-30T13:43:45.239Z,100671.50
2022-11-30T13:46:19.641Z,100682.75
2022-11-30T13:48:48.305Z,100670.13
2022-11-30T13:51:39.742Z,100667.88
2022-11-30T13:54:41.320Z,100666.81
2022-11-30T13:57:27.313Z,100667.66
2022-11-30T13:59:59.608Z,100661.94
2022-11-30T14:05:39.402Z,100671.50
2022-11-30T14:08:06.971Z,100666.09
2022-11-30T14:10:37.877Z,100663.16
2022-11-30T14:13:29.198Z,100673.59
2022-11-30T14:16:00.697Z,100663.16
2022-11-30T14:18:47.318Z,100665.09
2022-11-30T14:21:31.194Z,100671.66
2022-11-30T14:24:18.185Z,100668.03
2022-11-30T14:26:49.363Z,100653.09
2022-11-30T14:29:25.031Z,100658.31
2022-11-30T14:32:01.313Z,100659.19
2022-11-30T14:34:37.285Z,100654.00
2022-11-30T14:37:26.789Z,100659.03
2022-11-30T14:39:56.720Z,100659.53
2022-11-30T14:42:26.735Z,100661.28
2022-11-30T14:44:55.062Z,100664.91
2022-11-30T14:47:30.090Z,100665.78
2022-11-30T14:50:01.932Z,100668.03
2022-11-30T14:53:04.089Z,100660.59
2022-11-30T14:55:50.794Z,100663.53
2022-11-30T14:58:30.772Z,100669.75
2022-11-30T15:00:59.428Z,100672.69
2022-11-30T15:03:38.904Z,100671.34
2022-11-30T15:06:08.423Z,100671.69
2022-11-30T15:08:41.934Z,100674.25
2022-11-30T15:11:12.778Z,100674.47
2022-11-30T15:14:10.380Z,100678.44
2022-11-30T15:16:45.904Z,100676.00
2022-11-30T15:19:24.147Z,100670.97
2022-11-30T15:21:53.640Z,100668.41
2022-11-30T15:24:22.019Z,100670.66
2022-11-30T15:26:52.614Z,100669.25
2022-11-30T15:29:33.663Z,100668.91
2022-11-30T15:32:05.185Z,100661.59
2022-11-30T15:34:50.166Z,100658.50
2022-11-30T15:37:20.487Z,100661.59
2022-11-30T15:39:56.885Z,100665.25
2022-11-30T15:42:29.996Z,100672.00
2022-11-30T15:45:27.162Z,100664.75
2022-11-30T15:47:56.873Z,100669.56
2022-11-30T15:50:30.083Z,100661.97
2022-11-30T15:53:00.286Z,100668.41
2022-11-30T15:55:45.110Z,100665.91
2022-11-30T15:58:48.006Z,100666.78
2022-11-30T16:01:24.960Z,100657.78
2022-11-30T16:03:55.303Z,100664.19
2022-11-30T16:06:25.153Z,100663.50
2022-11-30T16:08:54.005Z,100662.63
2022-11-30T16:11:21.752Z,100661.56
2022-11-30T16:13:49.291Z,100663.66
2022-11-30T16:16:28.461Z,100663.81
2022-11-30T16:18:56.129Z,100672.13
2022-11-30T16:21:23.529Z,100671.97
2022-11-30T16:23:51.010Z,100673.56
2022-11-30T16:29:07.015Z,100666.78
2022-11-30T16:31:34.990Z,100669.38
2022-11-30T16:34:02.448Z,100666.94
2022-11-30T16:36:30.676Z,100667.63
2022-11-30T16:38:58.097Z,100662.63
2022-11-30T16:41:28.652Z,100659.69
2022-11-30T16:43:57.721Z,100665.22
2022-11-30T16:46:27.577Z,100669.19
2022-11-30T16:48:55.443Z,100673.03
2022-11-30T16:51:27.467Z,100669.38
2022-11-30T16:53:55.023Z,100677.69
2022-11-30T16:56:22.848Z,100668.88
2022-11-30T16:58:50.393Z,100663.66
2022-11-30T17:01:35.616Z,100660.88
2022-11-30T17:04:20.148Z,100670.09
2022-11-30T17:06:50.610Z,100672.13
2022-11-30T17:09:20.719Z,100671.13
2022-11-30T17:11:50.684Z,100665.56
2022-11-30T17:14:22.386Z,100664.84
2022-11-30T17:16:49.913Z,100660.03
2022-11-30T17:19:17.588Z,100661.94
2022-11-30T17:21:45.141Z,100669.72
2022-11-30T17:24:13.160Z,100673.38
2022-11-30T17:26:40.964Z,100675.78
2022-11-30T17:29:08.361Z,100672.50
2022-11-30T17:31:35.914Z,100678.03
2022-11-30T17:34:03.622Z,100685.16
2022-11-30T17:36:31.086Z,100685.31
2022-11-30T17:38:58.513Z,100680.47
2022-11-30T17:41:26.092Z,100679.25
2022-11-30T17:43:53.484Z,100677.38
2022-11-30T17:46:22.274Z,100681.88
2022-11-30T17:48:50.245Z,100681.19
2022-11-30T17:51:17.736Z,100682.53
2022-11-30T17:53:45.299Z,100679.78
2022-11-30T17:56:15.594Z,100680.81
2022-11-30T17:58:45.125Z,100679.97
2022-11-30T18:01:16.967Z,100677.19
2022-11-30T18:03:45.424Z,100677.19
2022-11-30T18:06:13.971Z,100686.19
2022-11-30T18:08:41.797Z,100679.63
2022-11-30T18:11:21.222Z,100678.22
2022-11-30T18:13:51.676Z,100677.00
2022-11-30T18:16:21.925Z,100668.53
2022-11-30T18:18:49.560Z,100680.47
2022-11-30T18:21:22.132Z,100681.69
2022-11-30T18:23:50.839Z,100676.84
2022-11-30T18:26:21.504Z,100687.25
2022-11-30T18:29:00.473Z,100680.81
2022-11-30T18:31:29.829Z,100685.50
2022-11-30T18:34:02.544Z,100688.09
2022-11-30T18:36:30.992Z,100686.19
2022-11-30T18:38:58.865Z,100681.84
2022-11-30T18:41:28.536Z,100683.59
2022-11-30T18:43:56.580Z,100692.28
2022-11-30T18:46:24.209Z,100686.88
2022-11-30T18:48:53.216Z,100691.88
2022-11-30T18:51:24.068Z,100691.56
2022-11-30T18:53:57.810Z,100692.06
2022-11-30T18:56:28.274Z,100699.72
2022-11-30T18:59:15.238Z,100698.66
2022-11-30T19:01:42.905Z,100706.31
2022-11-30T19:04:11.541Z,100708.19
2022-11-30T19:06:41.179Z,100711.84
2022-11-30T19:09:14.133Z,100719.13
2022-11-30T19:11:42.629Z,100722.78
2022-11-30T19:14:13.144Z,100727.28
2022-11-30T19:16:40.769Z,100725.38
2022-11-30T19:19:12.077Z,100731.97
2022-11-30T19:21:39.630Z,100733.00
2022-11-30T19:24:07.471Z,100727.97
2022-11-30T19:26:36.148Z,100734.56
2022-11-30T19:29:03.637Z,100745.84
2022-11-30T19:31:31.059Z,100747.94
2022-11-30T19:33:58.536Z,100748.81
2022-11-30T19:36:29.111Z,100749.13
2022-11-30T19:38:58.439Z,100742.38
2022-11-30T19:41:26.366Z,100749.81
2022-11-30T19:43:59.734Z,100746.03
2022-11-30T19:46:32.117Z,100751.41
2022-11-30T19:49:01.421Z,100752.97
2022-11-30T19:51:30.729Z,100749.34
2022-11-30T19:54:01.043Z,100746.72
2022-11-30T19:56:31.338Z,100744.16
2022-11-30T19:59:04.597Z,100746.25
2022-11-30T20:01:33.928Z,100741.88
2022-11-30T20:04:01.582Z,100743.06
2022-11-30T20:06:32.072Z,100745.31
2022-11-30T20:08:59.774Z,100739.78
2022-11-30T20:11:27.730Z,100736.00
2022-11-30T20:13:55.349Z,100728.88
2022-11-30T20:16:23.490Z,100729.19
2022-11-30T20:19:00.787Z,100728.50
2022-11-30T20:21:34.477Z,100736.00
2022-11-30T20:24:07.231Z,100731.97
2022-11-30T20:26:37.189Z,100730.94
2022-11-30T20:29:06.757Z,100734.94
2022-11-30T20:31:36.017Z,100727.63
2022-11-30T20:34:03.768Z,100728.50
2022-11-30T20:36:31.332Z,100727.81
2022-11-30T20:38:59.725Z,100737.34
2022-11-30T20:41:27.471Z,100729.03
2022-11-30T20:43:55.641Z,100736.66
2022-11-30T20:46:30.730Z,100735.09
2022-11-30T20:48:59.061Z,100735.47
2022-11-30T20:51:31.347Z,100728.84
2022-11-30T20:54:01.925Z,100739.75
2022-11-30T20:56:29.920Z,100752.94
2022-11-30T20:59:01.132Z,100751.56
2022-11-30T21:01:28.623Z,100752.59
2022-11-30T21:03:56.118Z,100753.97
2022-11-30T21:06:23.626Z,100762.47
2022-11-30T21:08:51.114Z,100765.22
2022-11-30T21:11:21.339Z,100762.31
2022-11-30T21:13:50.548Z,100752.41
2022-11-30T21:16:27.124Z,100749.31
2022-11-30T21:18:58.741Z,100755.38
2022-11-30T21:21:30.562Z,100750.66
2022-11-30T21:24:00.601Z,100754.66
2022-11-30T21:26:33.997Z,100751.56
2022-11-30T21:29:04.664Z,100746.16
2022-11-30T21:31:32.529Z,100753.59
2022-11-30T21:34:00.581Z,100756.56
2022-11-30T21:36:28.541Z,100757.25
2022-11-30T21:39:04.490Z,100767.66
2022-11-30T21:41:39.024Z,100767.31
2022-11-30T21:44:09.681Z,100770.44
2022-11-30T21:46:37.608Z,100782.56
2022-11-30T21:49:05.724Z,100776.16
2022-11-30T21:51:33.624Z,100782.22
2022-11-30T21:54:04.071Z,100787.09
2022-11-30T21:56:34.059Z,100775.44
2022-11-30T21:59:03.509Z,100785.84
2022-11-30T22:01:36.002Z,100784.31
2022-11-30T22:04:05.659Z,100783.78
2022-11-30T22:06:34.793Z,100781.50
2022-11-30T22:09:07.960Z,100786.16
2022-11-30T22:11:40.942Z,100782.03
2022-11-30T22:14:12.284Z,100783.25
2022-11-30T22:16:40.011Z,100778.91
2022-11-30T22:19:07.799Z,100781.50
2022-11-30T22:21:35.830Z,100784.59
2022-11-30T22:24:09.472Z,100779.59
2022-11-30T22:26:39.514Z,100783.94
2022-11-30T22:29:18.723Z,100778.72
2022-11-30T22:31:48.246Z,100782.56
2022-11-30T22:34:15.867Z,100779.78
2022-11-30T22:36:45.146Z,100779.78
2022-11-30T22:39:18.514Z,100781.66
2022-11-30T22:41:51.216Z,100780.97
2022-11-30T22:44:22.113Z,100779.41
2022-11-30T22:46:49.676Z,100779.75
2022-11-30T22:49:22.928Z,100781.81
2022-11-30T22:51:50.766Z,100779.75
2022-11-30T22:54:18.705Z,100777.66
2022-11-30T22:56:46.708Z,100771.59
2022-11-30T22:59:15.507Z,100775.56
2022-11-30T23:01:45.745Z,100781.13
2022-11-30T23:04:16.347Z,100773.84
2022-11-30T23:06:44.516Z,100763.97
2022-11-30T23:09:15.040Z,100768.97
2022-11-30T23:11:43.122Z,100760.66
2022-11-30T23:14:12.122Z,100750.75
2022-11-30T23:16:40.450Z,100752.03
2022-11-30T23:19:08.938Z,100749.03
2022-11-30T23:21:41.839Z,100749.25
2022-11-30T23:24:13.695Z,100746.63
2022-11-30T23:26:41.250Z,100740.56
2022-11-30T23:29:11.682Z,100731.72
2022-11-30T23:31:40.697Z,100745.75
2022-11-30T23:34:11.667Z,100747.13
2022-11-30T23:36:39.647Z,100749.91
2022-11-30T23:39:12.919Z,100749.22
2022-11-30T23:41:40.905Z,100747.28
2022-11-30T23:44:09.345Z,100750.22
2022-11-30T23:46:36.868Z,100753.00
2022-11-30T23:49:04.381Z,100751.50
2022-11-30T23:51:31.832Z,100756.50
2022-11-30T23:53:59.395Z,100747.47
2022-11-30T23:56:27.396Z,100753.72
2022-11-30T23:58:54.800Z,100755.09
